»·PEaware :: N46420 KLAX-KSAN

N46420 :: KLAX-KSAN

FLIGHT INFORMATION

Flight Status: Arrived
Operator: Privately registered:
United States
More flights under this callsign
Pilot: Nickolaus B. (17683)
Aircraft: CESSNA 172 SKYHAWK
(C172)
More flights by this aircraft type
Origin: KLAX Los Angeles Intl
United States
Destination: KSAN San Diego Intl-Lindbergh
United States
More flights between these airports :: More routes between these airports
Route: +
File this flight plan on PilotEdge
Remarks: CAT-11 Not a gin fan so I have rum
Altitude:
(Current/Filed)
5,500ft
Speed:
(Current/Filed)
130kts
Departed: 07-Jan-18 10:55 PM
Arrived: 07-Jan-18 11:54 PM
Distance/Time
Traveled:
95nm/0:59
Distance/Time
To Go:
Arrived

Flight Plot

Page will automatically refresh every two minutes.


Map Options




Map Legend


Flown Route
Filed Route
Departure Airport
Arrival Airport
Navaid (VOR, NDB)
Fix

Horizontal Profiles

Position Reports

Time Latitude Longitude Heading Altitude Ground
Speed
07-Jan-18 22:48 33.934137 -118.395574 175 106ft 0kts
07-Jan-18 22:49 33.934137 -118.395574 175 106ft 0kts
07-Jan-18 22:50 33.934137 -118.395574 175 106ft 0kts
07-Jan-18 22:51 33.934137 -118.395574 175 106ft 0kts
07-Jan-18 22:52 33.934137 -118.395574 175 106ft 0kts
07-Jan-18 22:53 33.934137 -118.395574 175 106ft 0kts
07-Jan-18 22:54 33.934137 -118.395574 175 106ft 0kts
07-Jan-18 22:55 33.934137 -118.395574 175 106ft 0kts
07-Jan-18 22:56 33.934132 -118.395549 54 106ft 0kts
07-Jan-18 22:57 33.935117 -118.392827 85 102ft 12kts
07-Jan-18 22:58 33.935757 -118.386445 82 99ft 23kts
07-Jan-18 22:59 33.936379 -118.382792 21 96ft 5kts
07-Jan-18 23:00 33.936531 -118.382765 357 96ft 4kts
07-Jan-18 23:01 33.936216 -118.395538 262 350ft 88kts
07-Jan-18 23:02 33.932373 -118.428269 263 1113ft 102kts
07-Jan-18 23:03 33.928907 -118.462139 263 1908ft 102kts
07-Jan-18 23:04 33.923918 -118.494990 228 2695ft 101kts
07-Jan-18 23:05 33.893753 -118.495668 173 2981ft 127kts
07-Jan-18 23:06 33.857665 -118.490152 172 2979ft 132kts
07-Jan-18 23:07 33.821113 -118.483556 172 2979ft 133kts
07-Jan-18 23:08 33.784763 -118.483933 191 2978ft 130kts
07-Jan-18 23:09 33.749777 -118.491715 193 2979ft 129kts
07-Jan-18 23:10 33.714291 -118.499655 192 2982ft 131kts
07-Jan-18 23:11 33.682980 -118.491100 125 3296ft 121kts
07-Jan-18 23:12 33.663036 -118.460259 129 3887ft 115kts
07-Jan-18 23:13 33.642747 -118.431203 130 4478ft 113kts
07-Jan-18 23:14 33.621812 -118.401961 131 4978ft 116kts
07-Jan-18 23:15 33.600594 -118.372531 132 5435ft 121kts
07-Jan-18 23:16 33.577117 -118.340145 132 5512ft 131kts
07-Jan-18 23:17 33.553006 -118.306888 131 5513ft 133kts
07-Jan-18 23:18 33.530038 -118.275203 130 5530ft 123kts
07-Jan-18 23:19 33.507766 -118.244470 129 5525ft 122kts
07-Jan-18 23:20 33.485626 -118.213936 129 5520ft 122kts
07-Jan-18 23:21 33.463245 -118.183128 129 5516ft 123kts
07-Jan-18 23:22 33.440595 -118.151988 129 5511ft 124kts
07-Jan-18 23:23 33.417940 -118.120836 130 5510ft 129kts
07-Jan-18 23:24 33.394839 -118.089138 129 5510ft 124kts
07-Jan-18 23:25 33.372289 -118.058199 129 5513ft 123kts
07-Jan-18 23:26 33.349863 -118.027432 129 5516ft 123kts
07-Jan-18 23:27 33.327520 -117.996823 130 5518ft 122kts
07-Jan-18 23:28 33.305167 -117.966256 130 5519ft 121kts
07-Jan-18 23:29 33.283516 -117.936635 131 5519ft 121kts
07-Jan-18 23:30 33.261375 -117.906413 131 5516ft 121kts
07-Jan-18 23:31 33.239136 -117.876041 131 5512ft 121kts
07-Jan-18 23:32 33.216852 -117.845669 131 5509ft 122kts
07-Jan-18 23:33 33.194637 -117.815404 131 5508ft 122kts
07-Jan-18 23:34 33.172303 -117.784995 131 5508ft 122kts
07-Jan-18 23:35 33.149814 -117.754404 131 5498ft 122kts
07-Jan-18 23:36 33.127348 -117.723880 132 5385ft 125kts
07-Jan-18 23:37 33.105895 -117.695031 131 4579ft 113kts
07-Jan-18 23:38 33.084741 -117.666393 131 3774ft 117kts
07-Jan-18 23:39 33.064840 -117.639331 130 3493ft 110kts
07-Jan-18 23:40 33.043041 -117.608897 129 3491ft 124kts
07-Jan-18 23:41 33.020221 -117.577589 130 3490ft 125kts
07-Jan-18 23:42 32.997180 -117.546358 130 3489ft 126kts
07-Jan-18 23:43 32.976333 -117.513371 90 3486ft 125kts
07-Jan-18 23:44 32.992587 -117.476703 61 3487ft 126kts
07-Jan-18 23:45 33.008275 -117.439160 63 3485ft 127kts
07-Jan-18 23:46 33.020851 -117.400025 84 3482ft 129kts
07-Jan-18 23:47 33.013943 -117.357800 105 3483ft 131kts
07-Jan-18 23:48 33.002862 -117.316597 111 3483ft 131kts
07-Jan-18 23:49 32.987086 -117.278654 116 3485ft 127kts
07-Jan-18 23:50 32.968494 -117.246438 126 3486ft 112kts
07-Jan-18 23:51 32.943660 -117.231543 206 3485ft 108kts
07-Jan-18 23:52 32.916665 -117.247472 208 3487ft 108kts
07-Jan-18 23:53 32.886931 -117.259085 184 3486ft 121kts
07-Jan-18 23:54 32.856356 -117.254668 166 3326ft 105kts
07-Jan-18 23:55 32.826816 -117.242751 159 2637ft 116kts
07-Jan-18 23:56 32.795889 -117.230488 162 1936ft 118kts
07-Jan-18 23:57 32.767228 -117.217503 156 1184ft 105kts
07-Jan-18 23:58 32.746949 -117.196506 108 697ft 94kts
07-Jan-18 23:59 32.738173 -117.171406 119 535ft 65kts
08-Jan-18 00:00 32.731660 -117.181869 285 14ft 39kts
08-Jan-18 00:01 32.733449 -117.184110 18 17ft 12kts
08-Jan-18 00:02 32.733836 -117.182673 86 17ft 6kts
08-Jan-18 00:03 32.733757 -117.182566 223 17ft 0kts
08-Jan-18 00:04 32.733757 -117.182566 223 17ft 0kts

Navigation Log

Ident Type
1. KLAX Airport
2. KSAN Airport